Time;durP1;ratioP1;P1;durP2;ratioP2;P2;SDS_P1;SDS_P2;PMS_P1;PMS_P2;Temp;Humidity;BMP_temperature;BMP_pressure;BME280_temperature;BME280_humidity;BME280_pressure;Samples;Min_cycle;Max_cycle;Signal;HPM_P1;HPM_P2
2020/12/30 00:00:00;;;;;;;3.27;3.07;;;1.80;99.90;;;;;;5019487;28;20201;-80
2020/12/30 00:02:29;;;;;;;3.43;3.13;;;1.80;99.90;;;;;;5019173;28;20558;-80
2020/12/30 00:04:55;;;;;;;3.63;3.00;;;1.80;99.90;;;;;;5028740;28;20175;-80
2020/12/30 00:07:22;;;;;;;3.13;2.80;;;1.80;99.90;;;;;;5030393;28;20273;-79
2020/12/30 00:09:49;;;;;;;2.80;2.60;;;1.80;99.90;;;;;;5024306;28;20249;-80
2020/12/30 00:12:16;;;;;;;2.60;2.40;;;1.80;99.90;;;;;;5018635;28;20262;-80
2020/12/30 00:14:42;;;;;;;3.57;2.43;;;1.70;99.90;;;;;;5019601;28;20183;-80
2020/12/30 00:17:08;;;;;;;3.93;3.00;;;1.60;99.90;;;;;;5023066;28;20190;-79
2020/12/30 00:19:34;;;;;;;3.20;2.90;;;1.70;99.90;;;;;;5015151;28;20245;-79
2020/12/30 00:22:00;;;;;;;4.43;2.43;;;1.70;99.90;;;;;;5015824;28;20171;-80
2020/12/30 00:24:25;;;;;;;6.10;3.17;;;1.80;99.90;;;;;;5019603;28;20242;-80
2020/12/30 00:26:51;;;;;;;4.43;3.07;;;1.80;99.90;;;;;;5018974;28;20222;-80
2020/12/30 00:29:17;;;;;;;5.00;3.47;;;1.90;99.90;;;;;;5025761;28;20182;-79
2020/12/30 00:31:43;;;;;;;3.30;3.00;;;1.90;99.90;;;;;;5026761;28;20171;-79
2020/12/30 00:34:09;;;;;;;3.07;2.73;;;2.00;99.90;;;;;;5019804;28;20176;-80
2020/12/30 00:36:39;;;;;;;4.27;2.70;;;2.00;99.90;;;;;;5018970;28;20565;-79
2020/12/30 00:39:06;;;;;;;4.43;2.73;;;2.00;99.90;;;;;;5018771;28;20195;-80
2020/12/30 00:41:32;;;;;;;3.60;2.80;;;2.00;99.90;;;;;;5018654;28;20180;-80
2020/12/30 00:44:00;;;;;;;4.60;3.93;;;2.00;99.90;;;;;;5016399;28;20179;-80
2020/12/30 00:46:26;;;;;;;4.33;3.73;;;1.90;99.90;;;;;;5016971;28;20282;-80
2020/12/30 00:48:52;;;;;;;4.57;3.40;;;1.80;99.90;;;;;;5018564;28;20187;-81
2020/12/30 00:51:18;;;;;;;4.70;3.60;;;1.70;99.90;;;;;;5015556;28;20174;-80
2020/12/30 00:53:44;;;;;;;3.80;3.00;;;1.60;99.90;;;;;;5018817;28;20528;-80
2020/12/30 00:56:10;;;;;;;5.60;3.53;;;1.50;99.90;;;;;;5018807;28;20175;-79
2020/12/30 00:58:37;;;;;;;3.30;3.00;;;1.50;99.90;;;;;;5018700;28;20195;-80
2020/12/30 01:01:04;;;;;;;4.10;3.37;;;1.50;99.90;;;;;;5018389;28;20286;-79
2020/12/30 01:03:30;;;;;;;4.93;3.53;;;1.50;99.90;;;;;;5017824;28;20167;-80
2020/12/30 01:05:56;;;;;;;6.47;4.57;;;1.40;99.90;;;;;;5017301;28;20183;-80
2020/12/30 01:08:23;;;;;;;6.80;5.60;;;1.30;99.90;;;;;;5026756;28;20211;-80
2020/12/30 01:10:48;;;;;;;5.17;4.67;;;1.20;99.90;;;;;;5009930;28;20178;-80
2020/12/30 01:13:14;;;;;;;6.07;5.30;;;1.20;99.90;;;;;;5016761;28;20617;-80
2020/12/30 01:15:40;;;;;;;5.47;4.97;;;1.30;99.90;;;;;;5013911;28;20175;-80
2020/12/30 01:18:06;;;;;;;4.67;4.00;;;1.30;99.90;;;;;;5014951;28;20253;-80
2020/12/30 01:20:32;;;;;;;5.37;4.87;;;1.30;99.90;;;;;;5012109;28;20666;-79
2020/12/30 01:22:57;;;;;;;6.33;5.73;;;1.30;99.90;;;;;;5016187;28;20191;-81
2020/12/30 01:25:23;;;;;;;6.57;5.97;;;1.40;99.90;;;;;;5017968;28;20168;-80
2020/12/30 01:27:48;;;;;;;6.70;6.10;;;1.40;99.90;;;;;;5017854;28;20321;-80
2020/12/30 01:30:14;;;;;;;4.60;4.13;;;1.40;99.90;;;;;;5016536;28;20179;-81
2020/12/30 01:32:40;;;;;;;5.57;4.63;;;1.30;99.90;;;;;;5016363;28;20226;-80
2020/12/30 01:35:06;;;;;;;5.87;5.17;;;1.20;99.90;;;;;;5018235;28;20183;-80
2020/12/30 01:37:31;;;;;;;5.47;4.43;;;1.20;99.90;;;;;;5017732;28;20195;-81
2020/12/30 01:39:57;;;;;;;5.20;4.40;;;1.10;99.90;;;;;;5015930;28;20270;-79
2020/12/30 01:42:23;;;;;;;4.50;4.10;;;1.10;99.90;;;;;;5016791;28;20175;-80
2020/12/30 01:44:51;;;;;;;3.93;3.63;;;1.10;99.90;;;;;;5015459;28;20170;-80
2020/12/30 01:47:17;;;;;;;3.87;3.47;;;1.00;99.90;;;;;;5016300;28;20195;-80
2020/12/30 01:49:44;;;;;;;9.73;6.87;;;1.00;99.90;;;;;;5016564;28;20179;-81
2020/12/30 01:52:10;;;;;;;5.33;4.93;;;0.90;99.90;;;;;;5016878;28;20262;-80
2020/12/30 01:54:36;;;;;;;9.60;7.53;;;0.90;99.90;;;;;;5016486;28;20180;-81
2020/12/30 01:57:03;;;;;;;7.30;6.70;;;0.80;99.90;;;;;;5016546;28;20276;-80
2020/12/30 01:59:30;;;;;;;5.80;5.30;;;0.80;99.90;;;;;;5016896;28;20191;-81
2020/12/30 02:02:06;;;;;;;6.57;5.97;;;0.90;99.90;;;;;;5015337;28;20263;-81
2020/12/30 02:04:52;;;;;;;10.43;8.67;;;0.90;99.90;;;;;;5016466;28;20547;-80
2020/12/30 02:07:24;;;;;;;8.10;7.30;;;1.00;99.90;;;;;;5018532;28;20206;-80
2020/12/30 02:09:51;;;;;;;6.10;5.10;;;1.00;99.90;;;;;;5014984;28;20179;-80
2020/12/30 02:12:18;;;;;;;5.07;4.33;;;1.00;99.90;;;;;;5016179;28;20661;-80
2020/12/30 02:14:50;;;;;;;3.07;2.87;;;1.00;99.90;;;;;;5019230;28;20183;-80
2020/12/30 02:17:16;;;;;;;3.20;2.90;;;0.90;99.90;;;;;;5015180;28;20199;-79
2020/12/30 02:19:43;;;;;;;3.30;2.93;;;0.80;99.90;;;;;;5015469;28;20211;-79
2020/12/30 02:22:15;;;;;;;2.63;2.43;;;0.80;99.90;;;;;;5015621;28;20716;-80
2020/12/30 02:24:40;;;;;;;2.63;2.43;;;0.70;99.90;;;;;;5014437;28;20182;-80
2020/12/30 02:27:06;;;;;;;2.80;2.40;;;0.70;99.90;;;;;;5015395;28;20193;-80
2020/12/30 02:29:37;;;;;;;3.23;2.20;;;0.60;99.90;;;;;;5015592;28;20175;-80
2020/12/30 02:32:10;;;;;;;2.40;2.10;;;0.70;99.90;;;;;;5016453;28;20183;-79
2020/12/30 02:34:36;;;;;;;3.10;2.60;;;0.70;99.90;;;;;;5016372;28;20171;-80
2020/12/30 02:37:02;;;;;;;2.93;2.70;;;0.80;99.90;;;;;;5014555;28;20202;-80
2020/12/30 02:39:28;;;;;;;2.63;2.40;;;0.70;99.90;;;;;;5015702;28;20215;-80
2020/12/30 02:41:54;;;;;;;2.90;2.70;;;0.70;99.90;;;;;;5015960;28;20591;-81
2020/12/30 02:44:20;;;;;;;2.57;2.37;;;0.70;99.90;;;;;;5016042;28;20253;-80
2020/12/30 02:46:46;;;;;;;2.67;2.40;;;0.80;99.90;;;;;;5016896;28;20202;-81
2020/12/30 02:49:12;;;;;;;2.37;2.17;;;0.90;99.90;;;;;;5016000;28;20202;-81
2020/12/30 02:51:44;;;;;;;2.80;2.30;;;0.90;99.90;;;;;;5014547;28;20721;-80
2020/12/30 02:54:10;;;;;;;2.47;2.27;;;0.90;99.90;;;;;;5015623;28;20225;-81
2020/12/30 02:56:35;;;;;;;2.87;2.67;;;0.80;99.90;;;;;;5014248;28;20203;-80
2020/12/30 02:59:01;;;;;;;2.50;2.30;;;0.80;99.90;;;;;;5015461;28;20198;-80
2020/12/30 03:01:27;;;;;;;2.30;2.10;;;0.80;99.90;;;;;;5015347;28;20650;-80
2020/12/30 03:03:52;;;;;;;2.60;2.40;;;0.70;99.90;;;;;;5015298;28;20186;-81
2020/12/30 03:06:24;;;;;;;2.70;2.50;;;0.70;99.90;;;;;;5013723;28;20171;-81
2020/12/30 03:08:52;;;;;;;3.70;3.40;;;0.70;99.90;;;;;;5015518;28;20228;-81
2020/12/30 03:11:20;;;;;;;2.77;2.53;;;0.70;99.90;;;;;;5011818;28;20182;-80
2020/12/30 03:13:46;;;;;;;2.50;2.30;;;0.60;99.90;;;;;;5003061;28;20650;-81
2020/12/30 03:16:12;;;;;;;2.90;2.70;;;0.60;99.90;;;;;;5012940;28;20262;-80
2020/12/30 03:18:38;;;;;;;3.53;3.23;;;0.70;99.90;;;;;;5013385;28;20198;-81
2020/12/30 03:21:03;;;;;;;4.70;4.30;;;0.80;99.90;;;;;;5014465;28;20182;-80
2020/12/30 03:23:29;;;;;;;8.27;6.37;;;0.90;99.90;;;;;;5015236;28;20268;-80
2020/12/30 03:25:55;;;;;;;4.47;4.07;;;0.90;99.90;;;;;;5015111;28;20186;-81
2020/12/30 03:28:21;;;;;;;3.60;3.30;;;0.90;99.90;;;;;;5014389;28;20194;-80
2020/12/30 03:30:47;;;;;;;3.13;2.83;;;1.00;99.90;;;;;;5015729;28;20181;-80
2020/12/30 03:33:13;;;;;;;11.30;5.90;;;1.00;99.90;;;;;;5020222;28;20194;-80
2020/12/30 03:35:39;;;;;;;5.67;3.33;;;1.00;99.90;;;;;;5020115;28;20207;-80
2020/12/30 03:38:05;;;;;;;14.50;7.53;;;0.90;99.90;;;;;;5018643;28;20206;-80
2020/12/30 03:40:31;;;;;;;17.20;8.50;;;0.90;99.90;;;;;;5019431;28;20183;-80
2020/12/30 03:42:57;;;;;;;5.47;4.10;;;0.90;99.90;;;;;;5019302;28;20736;-80
2020/12/30 03:45:22;;;;;;;45.67;16.57;;;0.90;99.90;;;;;;5020014;28;20205;-80
2020/12/30 03:47:48;;;;;;;57.63;21.30;;;0.90;99.90;;;;;;5019543;28;20263;-81
2020/12/30 03:50:14;;;;;;;10.93;6.83;;;0.90;99.90;;;;;;5019950;28;20174;-82
2020/12/30 03:52:40;;;;;;;15.23;8.03;;;0.90;99.90;;;;;;5021325;28;20270;-81
2020/12/30 03:55:05;;;;;;;28.03;11.70;;;1.00;99.90;;;;;;5019883;28;20213;-80
2020/12/30 03:57:31;;;;;;;15.53;8.40;;;1.10;99.90;;;;;;5019424;28;20207;-81
2020/12/30 03:59:58;;;;;;;11.13;6.97;;;1.10;99.90;;;;;;5019682;28;20233;-81
2020/12/30 04:02:24;;;;;;;5.57;3.60;;;1.10;99.90;;;;;;5019745;28;20206;-81
2020/12/30 04:04:49;;;;;;;4.23;3.83;;;1.10;99.90;;;;;;5023624;28;20170;-81
2020/12/30 04:07:15;;;;;;;4.60;3.70;;;1.10;99.90;;;;;;5044738;22;20206;-73
2020/12/30 04:09:41;;;;;;;5.27;2.90;;;1.10;99.90;;;;;;5034904;28;20210;-73
2020/12/30 04:12:07;;;;;;;5.37;3.70;;;1.10;99.90;;;;;;5036514;28;20179;-73
2020/12/30 04:14:33;;;;;;;5.23;3.73;;;1.10;99.90;;;;;;5035957;28;20649;-73
2020/12/30 04:16:58;;;;;;;3.27;2.60;;;1.20;99.90;;;;;;5038290;28;20179;-75
2020/12/30 04:19:24;;;;;;;2.83;2.63;;;1.20;99.90;;;;;;5017488;28;20198;-73
2020/12/30 04:21:50;;;;;;;3.13;2.80;;;1.20;99.90;;;;;;5016362;28;20164;-73
2020/12/30 04:24:16;;;;;;;2.70;2.50;;;1.20;99.90;;;;;;5014451;28;20302;-73
2020/12/30 04:26:41;;;;;;;3.77;3.20;;;1.30;99.90;;;;;;5011105;28;20168;-73
2020/12/30 04:29:07;;;;;;;4.23;3.00;;;1.30;99.90;;;;;;5016179;28;20199;-73
2020/12/30 04:31:36;;;;;;;3.57;3.23;;;1.30;99.90;;;;;;5016245;28;20182;-73
2020/12/30 04:34:02;;;;;;;3.80;3.50;;;1.30;99.90;;;;;;5015918;28;20187;-75
2020/12/30 04:36:28;;;;;;;3.17;2.87;;;1.30;99.90;;;;;;5016199;28;20202;-73
2020/12/30 04:38:54;;;;;;;3.83;3.53;;;1.30;99.90;;;;;;5016194;28;20261;-73
2020/12/30 04:41:27;;;;;;;3.47;2.80;;;1.30;99.90;;;;;;5016031;28;20229;-75
2020/12/30 04:43:54;;;;;;;5.27;3.47;;;1.20;99.90;;;;;;5015302;28;20182;-73
2020/12/30 04:46:22;;;;;;;8.03;4.07;;;1.20;99.90;;;;;;5014590;28;20186;-74
2020/12/30 04:48:48;;;;;;;4.00;3.70;;;1.20;99.90;;;;;;5015706;28;20187;-74
2020/12/30 04:51:16;;;;;;;4.10;3.70;;;1.20;99.90;;;;;;5015793;28;20234;-72
2020/12/30 04:53:44;;;;;;;5.70;4.50;;;1.20;99.90;;;;;;5015632;28;20205;-73
2020/12/30 04:56:15;;;;;;;4.13;3.73;;;1.20;99.90;;;;;;5014793;28;20610;-73
2020/12/30 04:58:42;;;;;;;4.27;3.70;;;1.30;99.90;;;;;;5009641;28;20203;-73
2020/12/30 05:01:11;;;;;;;5.87;5.27;;;1.30;99.90;;;;;;5012909;28;20206;-74
2020/12/30 05:03:45;;;;;;;5.07;4.67;;;1.40;99.90;;;;;;5006817;28;20558;-74
2020/12/30 05:06:13;;;;;;;4.00;3.70;;;1.40;99.90;;;;;;5005126;28;20199;-74
2020/12/30 05:08:40;;;;;;;3.23;2.93;;;1.50;99.90;;;;;;5012803;28;20305;-74
2020/12/30 05:11:05;;;;;;;3.00;2.70;;;1.60;99.90;;;;;;5014112;28;20329;-74
2020/12/30 05:13:32;;;;;;;2.90;2.70;;;1.70;99.90;;;;;;5015373;28;20172;-73
2020/12/30 05:15:58;;;;;;;2.63;2.43;;;1.60;99.90;;;;;;5010688;28;20253;-74
2020/12/30 05:18:24;;;;;;;3.43;2.77;;;1.80;99.90;;;;;;5013753;28;20334;-72
2020/12/30 05:20:50;;;;;;;2.80;2.60;;;1.80;99.90;;;;;;5015128;28;20631;-73
2020/12/30 05:23:16;;;;;;;4.63;3.50;;;1.80;99.90;;;;;;5013903;28;20266;-73
2020/12/30 05:25:44;;;;;;;3.37;3.07;;;1.80;99.90;;;;;;5016353;28;20214;-73
2020/12/30 05:28:12;;;;;;;4.17;3.00;;;1.80;99.90;;;;;;5016005;28;20278;-73
2020/12/30 05:30:43;;;;;;;4.03;3.20;;;1.80;99.90;;;;;;5016439;28;20175;-74
2020/12/30 05:33:09;;;;;;;3.87;3.43;;;1.80;99.90;;;;;;5015075;28;20179;-73
2020/12/30 05:35:35;;;;;;;3.07;2.87;;;1.80;99.90;;;;;;5014767;28;20534;-74
2020/12/30 05:38:03;;;;;;;3.73;3.43;;;1.80;99.90;;;;;;5015029;28;20195;-73
2020/12/30 05:40:31;;;;;;;3.37;3.10;;;1.70;99.90;;;;;;5014883;28;20221;-73
2020/12/30 05:43:14;;;;;;;3.60;3.30;;;1.70;99.90;;;;;;5013370;28;20172;-73
2020/12/30 05:45:45;;;;;;;3.73;3.13;;;1.70;99.90;;;;;;5014728;28;20175;-74
2020/12/30 05:48:13;;;;;;;3.40;3.10;;;1.70;99.90;;;;;;5014571;28;20321;-73
2020/12/30 05:50:53;;;;;;;5.80;3.87;;;1.70;99.90;;;;;;5014499;28;20263;-75
2020/12/30 05:53:20;;;;;;;5.20;3.43;;;1.80;99.90;;;;;;5003138;28;20167;-73
2020/12/30 05:55:49;;;;;;;3.50;3.00;;;1.70;99.90;;;;;;5014375;28;20179;-73
2020/12/30 05:58:17;;;;;;;3.03;2.83;;;1.70;99.90;;;;;;5014321;28;20278;-74
2020/12/30 06:00:43;;;;;;;3.27;3.07;;;1.80;99.90;;;;;;5014310;28;20179;-73
2020/12/30 06:03:13;;;;;;;3.47;3.03;;;1.80;99.90;;;;;;5021033;28;20198;-73
2020/12/30 06:05:39;;;;;;;3.10;2.77;;;1.80;99.90;;;;;;5022464;28;20580;-74
2020/12/30 06:08:05;;;;;;;3.87;3.27;;;1.80;99.90;;;;;;5014786;28;20221;-74
2020/12/30 06:10:32;;;;;;;4.57;3.60;;;1.80;99.90;;;;;;5025245;28;20183;-73
2020/12/30 06:13:01;;;;;;;4.10;3.60;;;1.70;99.90;;;;;;5014127;28;20179;-74
2020/12/30 06:15:31;;;;;;;4.57;4.27;;;1.70;99.90;;;;;;5012807;28;20262;-74
2020/12/30 06:18:05;;;;;;;4.73;4.17;;;1.70;99.90;;;;;;5013885;28;20268;-73
2020/12/30 06:20:36;;;;;;;4.77;4.10;;;1.70;99.90;;;;;;5013954;28;20195;-74
2020/12/30 06:23:12;;;;;;;4.40;4.00;;;1.60;99.90;;;;;;5013957;28;20552;-73
2020/12/30 06:25:40;;;;;;;5.00;4.27;;;1.60;99.90;;;;;;5012649;28;20167;-73
2020/12/30 06:28:08;;;;;;;4.17;3.87;;;1.60;99.90;;;;;;5013693;28;20690;-73
2020/12/30 06:30:34;;;;;;;4.37;4.07;;;1.50;99.90;;;;;;5012504;28;20171;-73
2020/12/30 06:33:01;;;;;;;4.13;3.77;;;1.60;99.90;;;;;;5012613;28;20171;-73
2020/12/30 06:35:30;;;;;;;6.00;4.40;;;1.60;99.90;;;;;;5014009;28;20510;-73
2020/12/30 06:37:57;;;;;;;5.03;4.63;;;1.60;99.90;;;;;;5014015;28;20201;-73
2020/12/30 06:40:29;;;;;;;6.40;4.73;;;1.50;99.90;;;;;;5012283;28;20218;-74
2020/12/30 06:43:01;;;;;;;7.00;5.37;;;1.50;99.90;;;;;;5013633;28;20256;-74
2020/12/30 06:45:48;;;;;;;5.40;4.90;;;1.50;99.90;;;;;;5013579;28;20649;-74
2020/12/30 06:48:15;;;;;;;5.17;4.53;;;1.50;99.90;;;;;;5014079;28;20198;-74
2020/12/30 06:50:41;;;;;;;6.07;5.47;;;1.60;99.90;;;;;;5013787;28;20254;-73
2020/12/30 06:53:28;;;;;;;13.00;8.70;;;1.60;99.90;;;;;;5013445;28;20167;-74
2020/12/30 06:55:54;;;;;;;8.23;4.70;;;1.60;99.90;;;;;;5011566;28;20641;-75
2020/12/30 06:58:43;;;;;;;11.83;6.20;;;1.60;99.90;;;;;;5005051;28;20681;-74
2020/12/30 07:01:10;;;;;;;5.23;4.73;;;1.60;99.90;;;;;;5012189;28;20202;-74
2020/12/30 07:03:36;;;;;;;7.80;7.07;;;1.70;99.90;;;;;;5013623;28;20175;-74
2020/12/30 07:06:22;;;;;;;11.43;7.47;;;1.60;99.90;;;;;;5012208;28;20186;-75
2020/12/30 07:08:48;;;;;;;5.60;5.20;;;1.60;99.90;;;;;;5011811;28;20627;-74
2020/12/30 07:11:44;;;;;;;6.93;6.23;;;1.60;99.90;;;;;;5013642;28;20207;-74
2020/12/30 07:14:11;;;;;;;6.40;5.90;;;1.60;99.90;;;;;;5013503;28;20170;-74
2020/12/30 07:16:37;;;;;;;7.57;5.47;;;1.60;99.90;;;;;;5013429;28;20171;-74
2020/12/30 07:19:15;;;;;;;6.70;5.73;;;1.60;99.90;;;;;;5013385;28;20222;-74
2020/12/30 07:22:11;;;;;;;6.37;5.50;;;1.70;99.90;;;;;;5012988;28;20575;-72
2020/12/30 07:24:40;;;;;;;7.60;5.27;;;1.70;99.90;;;;;;5003587;28;20179;-72
2020/12/30 07:27:09;;;;;;;7.23;6.53;;;1.70;99.90;;;;;;5013159;28;20171;-73
2020/12/30 07:29:34;;;;;;;7.30;6.27;;;1.60;99.90;;;;;;5013207;28;20278;-73
2020/12/30 07:32:03;;;;;;;5.93;5.43;;;1.60;99.90;;;;;;5013097;28;20210;-72
2020/12/30 07:34:34;;;;;;;6.10;5.50;;;1.70;99.90;;;;;;5013354;28;20175;-73
2020/12/30 07:37:02;;;;;;;6.23;5.63;;;1.70;99.90;;;;;;5011785;28;20254;-73
2020/12/30 07:39:39;;;;;;;19.10;12.43;;;1.70;99.90;;;;;;5013247;28;20202;-73
2020/12/30 07:42:15;;;;;;;12.50;9.60;;;1.70;99.90;;;;;;5012656;28;20286;-73
2020/12/30 07:44:46;;;;;;;22.67;14.73;;;1.80;99.90;;;;;;5012359;28;20171;-74
2020/12/30 07:47:12;;;;;;;6.93;6.23;;;1.80;99.90;;;;;;5011081;28;20190;-73
2020/12/30 07:49:38;;;;;;;6.70;5.93;;;1.80;99.90;;;;;;5012479;28;20237;-74
2020/12/30 07:52:05;;;;;;;6.30;5.80;;;1.80;99.90;;;;;;5012364;28;20179;-73
2020/12/30 07:54:32;;;;;;;8.50;6.00;;;1.70;99.90;;;;;;5012213;28;20179;-74
2020/12/30 07:57:04;;;;;;;17.33;12.87;;;1.70;99.90;;;;;;5012964;28;20179;-74
2020/12/30 07:59:31;;;;;;;28.20;19.83;;;1.70;99.90;;;;;;5024498;28;20278;-73
2020/12/30 08:02:13;;;;;;;18.23;14.00;;;1.70;99.90;;;;;;5012580;28;20563;-73
2020/12/30 08:04:40;;;;;;;32.50;21.60;;;1.70;99.90;;;;;;5010737;28;20175;-73
2020/12/30 08:07:08;;;;;;;40.30;25.67;;;1.70;99.90;;;;;;5010569;28;20191;-73
2020/12/30 08:09:45;;;;;;;17.77;14.27;;;1.80;99.90;;;;;;5010663;28;20179;-73
2020/12/30 08:12:14;;;;;;;8.57;7.87;;;1.80;99.90;;;;;;5011043;28;20243;-73
2020/12/30 08:14:43;;;;;;;9.53;8.53;;;1.80;99.90;;;;;;5014588;28;20526;-73
2020/12/30 08:17:12;;;;;;;7.67;6.70;;;1.70;99.90;;;;;;5009494;28;20195;-73
2020/12/30 08:19:42;;;;;;;9.17;6.53;;;1.70;99.90;;;;;;5015552;28;20205;-73
2020/12/30 08:22:14;;;;;;;7.10;6.40;;;1.70;99.90;;;;;;5011602;28;20259;-72
2020/12/30 08:24:41;;;;;;;7.80;6.70;;;1.70;99.90;;;;;;5015938;28;20247;-72
2020/12/30 08:27:08;;;;;;;8.13;6.47;;;1.70;99.90;;;;;;5014960;28;20191;-72
2020/12/30 08:29:36;;;;;;;9.97;7.53;;;1.70;99.90;;;;;;5016297;28;20658;-74
2020/12/30 08:32:22;;;;;;;8.67;7.77;;;1.70;99.90;;;;;;5016043;28;20262;-73
2020/12/30 08:34:56;;;;;;;7.40;6.47;;;1.70;99.90;;;;;;5014305;28;20286;-73
2020/12/30 08:37:30;;;;;;;9.43;6.80;;;1.80;99.90;;;;;;5015914;28;20222;-72
2020/12/30 08:40:06;;;;;;;7.97;6.93;;;1.90;99.90;;;;;;5015992;28;20681;-73
2020/12/30 08:42:48;;;;;;;8.93;6.73;;;1.90;99.90;;;;;;5015712;28;20645;-72
2020/12/30 08:45:24;;;;;;;7.63;6.50;;;2.00;99.90;;;;;;5015547;28;20171;-72
2020/12/30 08:47:53;;;;;;;7.87;7.03;;;1.90;99.90;;;;;;5013834;28;20203;-73
2020/12/30 08:50:26;;;;;;;7.67;6.83;;;2.00;99.90;;;;;;5015256;28;20179;-73
2020/12/30 08:52:52;;;;;;;8.57;7.53;;;1.90;99.90;;;;;;5015648;28;20183;-73
2020/12/30 08:55:18;;;;;;;7.13;6.37;;;1.90;99.90;;;;;;5014624;28;20189;-73
2020/12/30 08:57:46;;;;;;;6.80;6.20;;;1.90;99.90;;;;;;5014930;28;20199;-73
2020/12/30 09:00:23;;;;;;;6.80;6.07;;;1.90;99.90;;;;;;5012394;28;20290;-74
2020/12/30 09:02:53;;;;;;;10.23;9.07;;;2.00;99.90;;;;;;5012569;28;20198;-72
2020/12/30 09:05:29;;;;;;;8.37;7.57;;;2.00;99.90;;;;;;5013080;28;20186;-73
2020/12/30 09:08:10;;;;;;;8.23;6.73;;;2.10;99.90;;;;;;5012808;28;20213;-74
2020/12/30 09:10:35;;;;;;;8.43;6.90;;;2.20;99.90;;;;;;5013187;28;20237;-74
2020/12/30 09:13:21;;;;;;;7.10;6.50;;;2.20;99.90;;;;;;5013433;28;20654;-74
2020/12/30 09:15:54;;;;;;;9.97;8.50;;;2.20;99.90;;;;;;5013724;28;20179;-73
2020/12/30 09:18:24;;;;;;;8.93;8.13;;;2.30;99.90;;;;;;5012423;28;20199;-73
2020/12/30 09:20:50;;;;;;;9.27;8.47;;;2.20;99.90;;;;;;5011406;28;20176;-72
2020/12/30 09:23:20;;;;;;;10.57;9.57;;;2.30;99.90;;;;;;5012783;28;20654;-73
2020/12/30 09:25:47;;;;;;;12.53;9.93;;;2.30;99.90;;;;;;5013466;28;20206;-73
2020/12/30 09:28:23;;;;;;;10.50;9.40;;;2.30;99.90;;;;;;5013177;28;20610;-73
2020/12/30 09:30:53;;;;;;;11.93;10.73;;;2.40;99.90;;;;;;5012166;28;20175;-73
2020/12/30 09:33:24;;;;;;;10.90;9.90;;;2.40;99.90;;;;;;5014424;28;20168;-74
2020/12/30 09:35:50;;;;;;;11.30;10.27;;;2.40;99.90;;;;;;5014628;28;20171;-72
2020/12/30 09:38:20;;;;;;;11.47;10.27;;;2.40;99.90;;;;;;5012628;28;20195;-72
2020/12/30 09:40:48;;;;;;;11.97;10.60;;;2.40;99.90;;;;;;5014718;28;20206;-73
2020/12/30 09:43:19;;;;;;;11.27;9.87;;;2.40;99.90;;;;;;5013884;28;20186;-72
2020/12/30 09:45:46;;;;;;;12.90;11.60;;;2.40;99.90;;;;;;5012782;28;20263;-73
2020/12/30 09:48:20;;;;;;;15.40;13.07;;;2.40;99.90;;;;;;5012839;28;20235;-72
2020/12/30 09:50:50;;;;;;;15.60;12.93;;;2.40;99.90;;;;;;5012479;28;20179;-76
2020/12/30 09:53:16;;;;;;;13.03;11.73;;;2.40;99.90;;;;;;5006506;28;20207;-75
2020/12/30 09:55:47;;;;;;;11.37;10.27;;;2.40;99.90;;;;;;5011432;28;20214;-75
2020/12/30 09:58:13;;;;;;;11.97;10.77;;;2.40;99.90;;;;;;5014210;28;20194;-74
2020/12/30 10:00:39;;;;;;;13.47;12.17;;;2.40;99.90;;;;;;5012937;28;20203;-74
2020/12/30 10:03:05;;;;;;;13.67;12.30;;;2.30;99.90;;;;;;5014581;28;20171;-74
2020/12/30 10:05:31;;;;;;;15.23;13.40;;;2.40;99.90;;;;;;5026769;28;20167;-74
2020/12/30 10:07:57;;;;;;;14.13;12.73;;;2.50;99.90;;;;;;5034495;22;20264;-79
2020/12/30 10:10:24;;;;;;;13.57;12.17;;;2.40;99.90;;;;;;5050411;28;20182;-80
2020/12/30 10:12:50;;;;;;;14.33;11.47;;;2.50;99.90;;;;;;5064432;28;20713;-79
2020/12/30 10:15:17;;;;;;;13.20;11.83;;;2.50;99.90;;;;;;5061599;28;20170;-79
2020/12/30 10:17:43;;;;;;;13.10;11.80;;;2.40;99.90;;;;;;5055548;28;20272;-78
2020/12/30 10:20:11;;;;;;;14.83;13.13;;;2.40;99.90;;;;;;5066016;28;20209;-78
2020/12/30 10:22:37;;;;;;;14.47;12.87;;;2.40;99.90;;;;;;5066088;28;20245;-79
2020/12/30 10:25:05;;;;;;;15.53;13.93;;;2.50;99.90;;;;;;5067227;28;20260;-79
2020/12/30 10:27:31;;;;;;;16.23;14.30;;;2.60;99.90;;;;;;5063408;28;20171;-80
2020/12/30 10:29:57;;;;;;;13.17;11.83;;;2.90;99.90;;;;;;5033569;28;20186;-79
2020/12/30 10:32:23;;;;;;;16.80;12.23;;;2.90;99.90;;;;;;5060475;28;20178;-79
2020/12/30 10:34:48;;;;;;;12.00;10.70;;;3.00;99.90;;;;;;5064542;28;20187;-79
2020/12/30 10:37:18;;;;;;;13.73;12.33;;;2.90;99.90;;;;;;5054008;28;20184;-79
2020/12/30 10:39:48;;;;;;;15.20;12.27;;;3.10;99.90;;;;;;5067532;28;20205;-79
2020/12/30 10:42:14;;;;;;;13.93;11.20;;;2.90;99.90;;;;;;5067265;28;20173;-79
2020/12/30 10:44:40;;;;;;;11.80;10.60;;;3.00;99.90;;;;;;5066788;28;20196;-79
2020/12/30 10:47:06;;;;;;;11.37;10.37;;;3.10;99.90;;;;;;5066793;28;20170;-79
2020/12/30 10:49:32;;;;;;;11.73;10.60;;;3.10;99.90;;;;;;5063679;28;20224;-79
2020/12/30 10:51:57;;;;;;;12.40;11.10;;;3.20;99.90;;;;;;5067141;28;20643;-79
2020/12/30 10:54:23;;;;;;;9.77;8.87;;;3.30;99.90;;;;;;5067860;28;20185;-79
2020/12/30 10:56:50;;;;;;;10.77;9.67;;;3.30;99.90;;;;;;5066656;28;20197;-79
2020/12/30 10:59:16;;;;;;;10.67;9.70;;;3.30;99.90;;;;;;5067716;28;20233;-79
2020/12/30 11:01:43;;;;;;;10.10;9.20;;;3.20;99.90;;;;;;5068070;28;20678;-79
2020/12/30 11:04:10;;;;;;;10.67;9.57;;;3.30;99.90;;;;;;5066529;28;20180;-79
2020/12/30 11:06:39;;;;;;;10.10;9.30;;;3.40;99.90;;;;;;5066732;28;20209;-79
2020/12/30 11:09:06;;;;;;;11.53;8.60;;;3.30;99.90;;;;;;5065305;28;20225;-79
2020/12/30 11:11:40;;;;;;;10.83;9.70;;;3.30;99.90;;;;;;5067636;28;20190;-79
2020/12/30 11:14:06;;;;;;;9.23;8.43;;;3.30;99.90;;;;;;5066694;28;20608;-79
2020/12/30 11:16:32;;;;;;;10.17;9.07;;;3.30;99.90;;;;;;5067329;28;20185;-79
2020/12/30 11:18:58;;;;;;;9.37;8.53;;;3.30;99.90;;;;;;5065427;28;20211;-79
2020/12/30 11:21:24;;;;;;;9.40;8.60;;;3.30;99.90;;;;;;5067009;28;20173;-79
2020/12/30 11:23:50;;;;;;;10.03;9.03;;;3.30;99.90;;;;;;5067503;28;20179;-79
2020/12/30 11:26:16;;;;;;;9.73;8.80;;;3.40;99.90;;;;;;5053792;28;20178;-79
2020/12/30 11:28:41;;;;;;;9.23;8.33;;;3.40;99.90;;;;;;5066838;28;20675;-79
2020/12/30 11:31:08;;;;;;;9.63;8.73;;;3.40;99.90;;;;;;5064648;28;20188;-79
2020/12/30 11:33:34;;;;;;;9.10;8.30;;;3.40;99.90;;;;;;5065649;28;20228;-79
2020/12/30 11:36:00;;;;;;;9.13;8.37;;;3.40;99.90;;;;;;5065367;28;20189;-79
2020/12/30 11:38:27;;;;;;;9.67;8.70;;;3.40;99.90;;;;;;5063758;28;20198;-79
2020/12/30 11:40:52;;;;;;;9.50;8.60;;;3.40;99.90;;;;;;5065563;28;20239;-78
2020/12/30 11:43:18;;;;;;;9.87;9.00;;;3.30;99.90;;;;;;5063185;28;20182;-79
2020/12/30 11:45:43;;;;;;;12.60;9.33;;;3.30;99.90;;;;;;5064090;28;20249;-79
2020/12/30 11:48:10;;;;;;;9.47;8.67;;;3.30;99.90;;;;;;5063510;28;20210;-79
2020/12/30 11:50:36;;;;;;;8.93;8.23;;;3.30;99.90;;;;;;5062120;28;20639;-79
2020/12/30 11:53:02;;;;;;;9.83;8.97;;;3.30;99.90;;;;;;5065360;28;20231;-80
2020/12/30 11:55:27;;;;;;;8.60;7.90;;;3.30;99.90;;;;;;5066855;28;20178;-79
2020/12/30 11:57:54;;;;;;;10.00;9.10;;;3.20;99.90;;;;;;5064642;28;20228;-79
2020/12/30 12:00:20;;;;;;;9.70;8.80;;;3.30;99.90;;;;;;5063884;28;20201;-79
2020/12/30 12:02:45;;;;;;;9.03;8.33;;;3.10;99.90;;;;;;5063028;28;20182;-80
2020/12/30 12:05:12;;;;;;;10.07;9.07;;;3.00;99.90;;;;;;5059475;28;20228;-79
2020/12/30 12:07:38;;;;;;;9.90;9.00;;;3.00;99.90;;;;;;5065680;28;20182;-79
2020/12/30 12:10:06;;;;;;;10.50;9.50;;;3.00;99.90;;;;;;5066032;28;20209;-80
2020/12/30 12:12:32;;;;;;;10.67;9.73;;;3.10;99.90;;;;;;5062271;28;20186;-80
2020/12/30 12:14:58;;;;;;;10.93;9.70;;;3.20;99.90;;;;;;5064469;28;20217;-79
2020/12/30 12:17:23;;;;;;;13.20;9.10;;;3.20;99.90;;;;;;5065954;28;20182;-79
2020/12/30 12:19:49;;;;;;;11.33;10.40;;;3.30;99.90;;;;;;5064114;28;20211;-79
2020/12/30 12:22:15;;;;;;;10.23;9.17;;;3.20;99.90;;;;;;5062578;28;20186;-79
2020/12/30 12:24:41;;;;;;;10.23;9.33;;;3.30;99.90;;;;;;5062093;28;20201;-79
2020/12/30 12:27:07;;;;;;;10.67;9.60;;;3.30;99.90;;;;;;5062166;28;20181;-79
2020/12/30 12:29:36;;;;;;;9.50;8.77;;;3.30;99.90;;;;;;5066052;28;20258;-79
2020/12/30 12:32:11;;;;;;;9.30;7.70;;;3.30;99.90;;;;;;5064414;28;20702;-79
2020/12/30 12:34:39;;;;;;;10.40;9.40;;;3.30;99.90;;;;;;5063810;28;20177;-78
2020/12/30 12:37:06;;;;;;;10.33;9.07;;;3.30;99.90;;;;;;5057088;28;20659;-77
2020/12/30 12:39:32;;;;;;;9.00;8.17;;;3.50;99.90;;;;;;5055641;28;20571;-77
2020/12/30 12:41:58;;;;;;;9.30;8.40;;;3.60;99.90;;;;;;5055704;28;20174;-77
2020/12/30 12:44:24;;;;;;;20.03;11.37;;;3.60;99.90;;;;;;5054545;28;20178;-77
2020/12/30 12:46:50;;;;;;;15.70;10.60;;;3.60;99.90;;;;;;5055597;28;20660;-77
2020/12/30 12:49:16;;;;;;;10.53;9.53;;;3.60;99.90;;;;;;5055381;28;20194;-77
2020/12/30 12:51:53;;;;;;;9.50;8.73;;;3.70;99.90;;;;;;5055497;28;20207;-77
2020/12/30 12:54:20;;;;;;;9.47;8.67;;;3.70;99.90;;;;;;5055431;28;20545;-77
2020/12/30 12:56:46;;;;;;;9.27;8.37;;;3.80;99.90;;;;;;5040464;28;20675;-78